sensor_id;sensor_type;location;lat;lon;timestamp;temperature;humidity
61400;DHT22;47269;48.182;-1.946;2023-05-16T06:02:01;7.90;99.90
61400;DHT22;47269;48.182;-1.946;2023-05-16T06:04:27;8.00;99.90
61400;DHT22;47269;48.182;-1.946;2023-05-16T06:06:52;8.00;99.90
61400;DHT22;47269;48.182;-1.946;2023-05-16T06:09:19;8.30;99.90
61400;DHT22;47269;48.182;-1.946;2023-05-16T06:11:45;8.50;99.90
61400;DHT22;47269;48.182;-1.946;2023-05-16T06:14:11;8.40;99.90
61400;DHT22;47269;48.182;-1.946;2023-05-16T06:16:36;8.40;99.90
61400;DHT22;47269;48.182;-1.946;2023-05-16T06:19:04;8.50;99.90
61400;DHT22;47269;48.182;-1.946;2023-05-16T06:21:30;8.60;99.90
61400;DHT22;47269;48.182;-1.946;2023-05-16T06:23:56;8.70;99.90
61400;DHT22;47269;48.182;-1.946;2023-05-16T06:26:22;8.70;99.90
61400;DHT22;47269;48.182;-1.946;2023-05-16T06:28:47;8.90;99.90
61400;DHT22;47269;48.182;-1.946;2023-05-16T06:31:13;9.00;99.90
61400;DHT22;47269;48.182;-1.946;2023-05-16T06:33:39;9.10;99.90
61400;DHT22;47269;48.182;-1.946;2023-05-16T06:36:05;9.20;99.90
61400;DHT22;47269;48.182;-1.946;2023-05-16T06:38:31;9.20;99.90
61400;DHT22;47269;48.182;-1.946;2023-05-16T06:40:56;9.30;99.90
61400;DHT22;47269;48.182;-1.946;2023-05-16T06:43:22;9.50;99.90
61400;DHT22;47269;48.182;-1.946;2023-05-16T06:45:48;9.60;99.90
61400;DHT22;47269;48.182;-1.946;2023-05-16T06:48:14;9.90;99.90
61400;DHT22;47269;48.182;-1.946;2023-05-16T06:50:40;10.00;99.90
61400;DHT22;47269;48.182;-1.946;2023-05-16T06:53:06;10.20;99.90
61400;DHT22;47269;48.182;-1.946;2023-05-16T06:55:32;10.50;99.90
61400;DHT22;47269;48.182;-1.946;2023-05-16T06:57:58;10.80;99.90
61400;DHT22;47269;48.182;-1.946;2023-05-16T07:00:24;11.30;99.90
61400;DHT22;47269;48.182;-1.946;2023-05-16T07:02:50;11.60;99.90
61400;DHT22;47269;48.182;-1.946;2023-05-16T07:05:16;11.80;99.90
61400;DHT22;47269;48.182;-1.946;2023-05-16T07:07:41;12.40;99.90
61400;DHT22;47269;48.182;-1.946;2023-05-16T07:10:07;12.60;99.90
61400;DHT22;47269;48.182;-1.946;2023-05-16T07:12:35;12.40;99.90
61400;DHT22;47269;48.182;-1.946;2023-05-16T07:15:03;12.80;99.90
61400;DHT22;47269;48.182;-1.946;2023-05-16T07:17:28;13.10;99.90
61400;DHT22;47269;48.182;-1.946;2023-05-16T07:19:54;13.40;99.90
61400;DHT22;47269;48.182;-1.946;2023-05-16T07:22:20;14.20;99.90
61400;DHT22;47269;48.182;-1.946;2023-05-16T07:24:45;13.90;99.90
61400;DHT22;47269;48.182;-1.946;2023-05-16T07:27:11;13.80;99.90
61400;DHT22;47269;48.182;-1.946;2023-05-16T07:29:37;14.00;99.90
61400;DHT22;47269;48.182;-1.946;2023-05-16T07:32:03;14.20;99.90
61400;DHT22;47269;48.182;-1.946;2023-05-16T07:34:29;13.90;99.90
61400;DHT22;47269;48.182;-1.946;2023-05-16T07:36:55;14.50;99.90
61400;DHT22;47269;48.182;-1.946;2023-05-16T07:39:21;14.80;99.90
61400;DHT22;47269;48.182;-1.946;2023-05-16T07:41:47;14.60;99.90
61400;DHT22;47269;48.182;-1.946;2023-05-16T07:44:12;14.40;99.90
61400;DHT22;47269;48.182;-1.946;2023-05-16T07:46:38;14.70;99.90
61400;DHT22;47269;48.182;-1.946;2023-05-16T07:49:04;15.20;99.90
61400;DHT22;47269;48.182;-1.946;2023-05-16T07:51:29;15.10;99.90
61400;DHT22;47269;48.182;-1.946;2023-05-16T07:53:56;15.50;99.90
61400;DHT22;47269;48.182;-1.946;2023-05-16T07:56:21;15.90;99.90
61400;DHT22;47269;48.182;-1.946;2023-05-16T07:58:48;15.70;99.90
61400;DHT22;47269;48.182;-1.946;2023-05-16T08:01:13;15.90;99.90
61400;DHT22;47269;48.182;-1.946;2023-05-16T08:03:39;15.80;99.90
61400;DHT22;47269;48.182;-1.946;2023-05-16T08:06:05;15.40;99.90
61400;DHT22;47269;48.182;-1.946;2023-05-16T08:08:30;15.10;99.90
61400;DHT22;47269;48.182;-1.946;2023-05-16T08:10:56;15.50;99.90
61400;DHT22;47269;48.182;-1.946;2023-05-16T08:13:22;15.80;99.90
61400;DHT22;47269;48.182;-1.946;2023-05-16T08:15:47;15.80;99.90
61400;DHT22;47269;48.182;-1.946;2023-05-16T08:18:14;16.10;99.90
61400;DHT22;47269;48.182;-1.946;2023-05-16T08:20:40;16.40;99.90
61400;DHT22;47269;48.182;-1.946;2023-05-16T08:23:07;16.00;99.90
61400;DHT22;47269;48.182;-1.946;2023-05-16T08:25:33;16.50;99.90
61400;DHT22;47269;48.182;-1.946;2023-05-16T08:27:59;16.00;99.90
61400;DHT22;47269;48.182;-1.946;2023-05-16T08:30:28;16.00;99.90
61400;DHT22;47269;48.182;-1.946;2023-05-16T08:32:54;16.60;99.90
61400;DHT22;47269;48.182;-1.946;2023-05-16T08:35:19;17.20;99.90
61400;DHT22;47269;48.182;-1.946;2023-05-16T08:37:45;16.60;99.90
61400;DHT22;47269;48.182;-1.946;2023-05-16T08:40:11;17.10;99.90
61400;DHT22;47269;48.182;-1.946;2023-05-16T08:42:38;17.30;99.90
61400;DHT22;47269;48.182;-1.946;2023-05-16T08:45:06;17.50;99.90
61400;DHT22;47269;48.182;-1.946;2023-05-16T08:47:32;17.80;99.90
61400;DHT22;47269;48.182;-1.946;2023-05-16T08:49:59;17.30;99.90
61400;DHT22;47269;48.182;-1.946;2023-05-16T08:52:27;18.30;99.90
61400;DHT22;47269;48.182;-1.946;2023-05-16T08:55:01;19.00;99.90
61400;DHT22;47269;48.182;-1.946;2023-05-16T08:57:31;17.60;99.90
61400;DHT22;47269;48.182;-1.946;2023-05-16T08:59:58;18.10;99.90
61400;DHT22;47269;48.182;-1.946;2023-05-16T09:02:24;18.50;99.90
61400;DHT22;47269;48.182;-1.946;2023-05-16T09:04:52;18.30;99.90
61400;DHT22;47269;48.182;-1.946;2023-05-16T09:07:17;18.60;99.90
61400;DHT22;47269;48.182;-1.946;2023-05-16T09:09:43;18.90;99.90
61400;DHT22;47269;48.182;-1.946;2023-05-16T09:12:09;19.20;99.90
61400;DHT22;47269;48.182;-1.946;2023-05-16T09:14:34;20.20;99.90
61400;DHT22;47269;48.182;-1.946;2023-05-16T09:17:05;18.00;99.90
61400;DHT22;47269;48.182;-1.946;2023-05-16T09:22:03;18.30;99.90
61400;DHT22;47269;48.182;-1.946;2023-05-16T09:24:30;18.80;99.90
61400;DHT22;47269;48.182;-1.946;2023-05-16T09:26:55;19.10;99.90
61400;DHT22;47269;48.182;-1.946;2023-05-16T09:29:21;18.20;99.90
61400;DHT22;47269;48.182;-1.946;2023-05-16T09:31:48;17.90;99.90
61400;DHT22;47269;48.182;-1.946;2023-05-16T09:34:14;18.10;99.90
61400;DHT22;47269;48.182;-1.946;2023-05-16T09:36:40;17.80;99.90
61400;DHT22;47269;48.182;-1.946;2023-05-16T09:39:06;18.20;99.90
61400;DHT22;47269;48.182;-1.946;2023-05-16T09:41:35;19.00;99.90
61400;DHT22;47269;48.182;-1.946;2023-05-16T09:44:04;19.10;99.90
61400;DHT22;47269;48.182;-1.946;2023-05-16T09:46:33;18.10;99.90
61400;DHT22;47269;48.182;-1.946;2023-05-16T09:48:58;18.50;99.90
61400;DHT22;47269;48.182;-1.946;2023-05-16T09:51:25;18.20;99.90
61400;DHT22;47269;48.182;-1.946;2023-05-16T09:53:51;18.40;99.90
61400;DHT22;47269;48.182;-1.946;2023-05-16T09:56:17;18.60;99.90
61400;DHT22;47269;48.182;-1.946;2023-05-16T09:58:43;18.70;99.90
61400;DHT22;47269;48.182;-1.946;2023-05-16T10:01:11;19.40;99.90
61400;DHT22;47269;48.182;-1.946;2023-05-16T10:03:39;19.30;99.90
61400;DHT22;47269;48.182;-1.946;2023-05-16T10:06:06;18.00;99.90
61400;DHT22;47269;48.182;-1.946;2023-05-16T10:08:33;17.30;99.90
61400;DHT22;47269;48.182;-1.946;2023-05-16T10:11:04;17.20;99.90
61400;DHT22;47269;48.182;-1.946;2023-05-16T10:13:32;17.00;99.90
61400;DHT22;47269;48.182;-1.946;2023-05-16T10:15:59;17.70;99.90
61400;DHT22;47269;48.182;-1.946;2023-05-16T10:18:29;18.60;99.90
61400;DHT22;47269;48.182;-1.946;2023-05-16T10:20:59;17.70;99.90
61400;DHT22;47269;48.182;-1.946;2023-05-16T10:23:27;17.40;99.90
61400;DHT22;47269;48.182;-1.946;2023-05-16T10:25:54;17.90;99.90
61400;DHT22;47269;48.182;-1.946;2023-05-16T10:28:22;18.40;99.90
61400;DHT22;47269;48.182;-1.946;2023-05-16T10:30:50;19.00;99.90
61400;DHT22;47269;48.182;-1.946;2023-05-16T10:33:17;18.40;99.90
61400;DHT22;47269;48.182;-1.946;2023-05-16T10:35:44;18.90;99.90
61400;DHT22;47269;48.182;-1.946;2023-05-16T10:38:13;18.00;99.90
61400;DHT22;47269;48.182;-1.946;2023-05-16T10:40:40;18.50;99.90
61400;DHT22;47269;48.182;-1.946;2023-05-16T10:43:07;19.00;99.90
61400;DHT22;47269;48.182;-1.946;2023-05-16T10:45:34;18.60;99.90
61400;DHT22;47269;48.182;-1.946;2023-05-16T10:48:04;19.50;99.90
61400;DHT22;47269;48.182;-1.946;2023-05-16T10:50:41;19.20;99.90
61400;DHT22;47269;48.182;-1.946;2023-05-16T10:53:30;19.60;99.90
61400;DHT22;47269;48.182;-1.946;2023-05-16T11:01:28;17.40;99.90
61400;DHT22;47269;48.182;-1.946;2023-05-16T11:06:24;16.90;99.90
61400;DHT22;47269;48.182;-1.946;2023-05-16T11:14:23;17.80;99.90
61400;DHT22;47269;48.182;-1.946;2023-05-16T11:17:01;17.90;99.90
61400;DHT22;47269;48.182;-1.946;2023-05-16T11:27:47;18.10;99.90
61400;DHT22;47269;48.182;-1.946;2023-05-16T11:30:16;17.10;99.90
61400;DHT22;47269;48.182;-1.946;2023-05-16T11:32:45;16.50;99.90
61400;DHT22;47269;48.182;-1.946;2023-05-16T11:35:12;16.40;99.90
61400;DHT22;47269;48.182;-1.946;2023-05-16T11:37:38;17.70;99.90
61400;DHT22;47269;48.182;-1.946;2023-05-16T11:40:05;18.60;99.90
61400;DHT22;47269;48.182;-1.946;2023-05-16T11:42:40;18.80;99.90
61400;DHT22;47269;48.182;-1.946;2023-05-16T11:45:18;18.50;99.90
61400;DHT22;47269;48.182;-1.946;2023-05-16T11:47:45;17.40;99.90
61400;DHT22;47269;48.182;-1.946;2023-05-16T11:50:13;17.00;99.90
61400;DHT22;47269;48.182;-1.946;2023-05-16T11:52:39;17.90;99.90
61400;DHT22;47269;48.182;-1.946;2023-05-16T11:55:08;18.50;99.90
61400;DHT22;47269;48.182;-1.946;2023-05-16T11:57:40;18.80;99.90
61400;DHT22;47269;48.182;-1.946;2023-05-16T12:00:19;18.50;99.90
61400;DHT22;47269;48.182;-1.946;2023-05-16T12:02:46;18.10;99.90
61400;DHT22;47269;48.182;-1.946;2023-05-16T12:05:16;18.30;99.90
61400;DHT22;47269;48.182;-1.946;2023-05-16T12:07:43;18.10;99.90
61400;DHT22;47269;48.182;-1.946;2023-05-16T12:10:11;17.50;99.90
61400;DHT22;47269;48.182;-1.946;2023-05-16T12:12:39;17.70;99.90
61400;DHT22;47269;48.182;-1.946;2023-05-16T12:15:06;18.50;99.90
61400;DHT22;47269;48.182;-1.946;2023-05-16T12:17:36;19.10;99.90
61400;DHT22;47269;48.182;-1.946;2023-05-16T12:20:04;18.40;99.90
61400;DHT22;47269;48.182;-1.946;2023-05-16T12:22:42;17.90;99.90
61400;DHT22;47269;48.182;-1.946;2023-05-16T12:25:26;17.40;99.90
61400;DHT22;47269;48.182;-1.946;2023-05-16T12:27:56;18.40;99.90
61400;DHT22;47269;48.182;-1.946;2023-05-16T12:30:23;18.10;99.90
61400;DHT22;47269;48.182;-1.946;2023-05-16T12:35:29;18.90;99.90
61400;DHT22;47269;48.182;-1.946;2023-05-16T12:37:55;18.30;99.90
61400;DHT22;47269;48.182;-1.946;2023-05-16T12:40:22;17.90;99.90
61400;DHT22;47269;48.182;-1.946;2023-05-16T12:42:52;17.80;99.90
61400;DHT22;47269;48.182;-1.946;2023-05-16T12:45:18;18.10;99.90
61400;DHT22;47269;48.182;-1.946;2023-05-16T12:47:45;18.40;99.90
61400;DHT22;47269;48.182;-1.946;2023-05-16T12:50:12;18.30;99.90
61400;DHT22;47269;48.182;-1.946;2023-05-16T12:52:59;18.50;99.90
61400;DHT22;47269;48.182;-1.946;2023-05-16T12:55:25;18.30;99.90
61400;DHT22;47269;48.182;-1.946;2023-05-16T12:57:51;18.40;99.90
61400;DHT22;47269;48.182;-1.946;2023-05-16T13:00:18;18.30;99.90
61400;DHT22;47269;48.182;-1.946;2023-05-16T13:02:45;18.40;99.90
61400;DHT22;47269;48.182;-1.946;2023-05-16T13:05:11;18.00;99.90
61400;DHT22;47269;48.182;-1.946;2023-05-16T13:07:37;18.30;99.90
61400;DHT22;47269;48.182;-1.946;2023-05-16T13:10:06;18.50;99.90
61400;DHT22;47269;48.182;-1.946;2023-05-16T13:12:34;18.40;99.90
61400;DHT22;47269;48.182;-1.946;2023-05-16T13:15:00;18.60;99.90
61400;DHT22;47269;48.182;-1.946;2023-05-16T13:17:26;18.30;99.90
61400;DHT22;47269;48.182;-1.946;2023-05-16T13:19:54;18.10;99.90
61400;DHT22;47269;48.182;-1.946;2023-05-16T13:22:20;18.00;99.90
61400;DHT22;47269;48.182;-1.946;2023-05-16T13:28:07;18.00;99.90
61400;DHT22;47269;48.182;-1.946;2023-05-16T13:30:33;18.10;99.90
61400;DHT22;47269;48.182;-1.946;2023-05-16T13:32:59;18.30;99.90
61400;DHT22;47269;48.182;-1.946;2023-05-16T13:35:26;18.70;99.90
61400;DHT22;47269;48.182;-1.946;2023-05-16T13:37:51;18.50;99.90
61400;DHT22;47269;48.182;-1.946;2023-05-16T13:40:17;18.60;99.90
61400;DHT22;47269;48.182;-1.946;2023-05-16T13:42:43;18.00;99.90
61400;DHT22;47269;48.182;-1.946;2023-05-16T13:45:09;17.80;99.90
61400;DHT22;47269;48.182;-1.946;2023-05-16T13:47:34;17.90;99.90
61400;DHT22;47269;48.182;-1.946;2023-05-16T13:50:01;18.40;99.90
61400;DHT22;47269;48.182;-1.946;2023-05-16T13:52:30;18.00;99.90
61400;DHT22;47269;48.182;-1.946;2023-05-16T13:54:56;18.00;99.90
61400;DHT22;47269;48.182;-1.946;2023-05-16T13:57:22;17.90;99.90
61400;DHT22;47269;48.182;-1.946;2023-05-16T13:59:48;18.00;99.90
61400;DHT22;47269;48.182;-1.946;2023-05-16T14:02:13;18.10;99.90
61400;DHT22;47269;48.182;-1.946;2023-05-16T14:04:39;18.10;99.90
61400;DHT22;47269;48.182;-1.946;2023-05-16T14:07:05;18.40;99.90
61400;DHT22;47269;48.182;-1.946;2023-05-16T14:09:31;18.10;99.90
61400;DHT22;47269;48.182;-1.946;2023-05-16T14:11:59;18.20;99.90
61400;DHT22;47269;48.182;-1.946;2023-05-16T14:14:27;18.20;99.90
61400;DHT22;47269;48.182;-1.946;2023-05-16T14:16:52;18.30;99.90
61400;DHT22;47269;48.182;-1.946;2023-05-16T14:19:18;18.40;99.90
61400;DHT22;47269;48.182;-1.946;2023-05-16T14:21:44;18.60;99.90
61400;DHT22;47269;48.182;-1.946;2023-05-16T14:24:09;18.00;99.90
61400;DHT22;47269;48.182;-1.946;2023-05-16T14:26:36;18.10;99.90
61400;DHT22;47269;48.182;-1.946;2023-05-16T14:29:02;18.30;99.90
61400;DHT22;47269;48.182;-1.946;2023-05-16T14:31:28;17.90;99.90
61400;DHT22;47269;48.182;-1.946;2023-05-16T14:33:54;17.70;99.90
61400;DHT22;47269;48.182;-1.946;2023-05-16T14:36:26;17.70;99.90
61400;DHT22;47269;48.182;-1.946;2023-05-16T14:38:51;17.30;99.90
61400;DHT22;47269;48.182;-1.946;2023-05-16T14:41:17;17.40;99.90
61400;DHT22;47269;48.182;-1.946;2023-05-16T14:43:44;18.10;99.90
61400;DHT22;47269;48.182;-1.946;2023-05-16T14:46:10;17.70;99.90
61400;DHT22;47269;48.182;-1.946;2023-05-16T14:48:36;17.70;99.90
61400;DHT22;47269;48.182;-1.946;2023-05-16T14:51:02;17.50;99.90
61400;DHT22;47269;48.182;-1.946;2023-05-16T14:53:29;17.70;99.90
61400;DHT22;47269;48.182;-1.946;2023-05-16T14:55:55;17.50;99.90
61400;DHT22;47269;48.182;-1.946;2023-05-16T14:58:20;17.60;99.90
61400;DHT22;47269;48.182;-1.946;2023-05-16T15:00:46;17.80;99.90
61400;DHT22;47269;48.182;-1.946;2023-05-16T15:03:12;17.70;99.90
61400;DHT22;47269;48.182;-1.946;2023-05-16T15:05:37;17.80;99.90
61400;DHT22;47269;48.182;-1.946;2023-05-16T15:08:03;17.90;99.90
61400;DHT22;47269;48.182;-1.946;2023-05-16T15:10:29;17.80;99.90
61400;DHT22;47269;48.182;-1.946;2023-05-16T15:12:55;17.70;99.90
61400;DHT22;47269;48.182;-1.946;2023-05-16T15:15:20;17.90;99.90
61400;DHT22;47269;48.182;-1.946;2023-05-16T15:17:46;17.70;99.90
61400;DHT22;47269;48.182;-1.946;2023-05-16T15:20:12;17.60;99.90
61400;DHT22;47269;48.182;-1.946;2023-05-16T15:22:38;17.40;99.90
61400;DHT22;47269;48.182;-1.946;2023-05-16T15:25:06;17.50;99.90
61400;DHT22;47269;48.182;-1.946;2023-05-16T15:27:32;17.20;99.90
61400;DHT22;47269;48.182;-1.946;2023-05-16T15:29:58;17.00;99.90
61400;DHT22;47269;48.182;-1.946;2023-05-16T15:32:25;17.50;99.90
61400;DHT22;47269;48.182;-1.946;2023-05-16T15:34:51;17.40;99.90
61400;DHT22;47269;48.182;-1.946;2023-05-16T15:37:16;17.40;99.90
61400;DHT22;47269;48.182;-1.946;2023-05-16T15:39:42;17.10;99.90
61400;DHT22;47269;48.182;-1.946;2023-05-16T15:42:09;17.00;99.90
61400;DHT22;47269;48.182;-1.946;2023-05-16T15:44:35;17.00;99.90
61400;DHT22;47269;48.182;-1.946;2023-05-16T15:47:01;16.80;99.90
61400;DHT22;47269;48.182;-1.946;2023-05-16T15:49:27;16.90;99.90
61400;DHT22;47269;48.182;-1.946;2023-05-16T15:51:53;16.80;99.90
61400;DHT22;47269;48.182;-1.946;2023-05-16T15:54:19;16.90;99.90
61400;DHT22;47269;48.182;-1.946;2023-05-16T15:56:45;16.60;99.90
61400;DHT22;47269;48.182;-1.946;2023-05-16T15:59:11;16.70;99.90
61400;DHT22;47269;48.182;-1.946;2023-05-16T16:01:36;16.70;99.90
61400;DHT22;47269;48.182;-1.946;2023-05-16T16:04:02;16.60;99.90
61400;DHT22;47269;48.182;-1.946;2023-05-16T16:06:28;16.70;99.90
61400;DHT22;47269;48.182;-1.946;2023-05-16T16:08:53;16.50;99.90
61400;DHT22;47269;48.182;-1.946;2023-05-16T16:11:19;16.50;99.90
61400;DHT22;47269;48.182;-1.946;2023-05-16T16:13:49;16.60;99.90
61400;DHT22;47269;48.182;-1.946;2023-05-16T16:19:37;16.60;99.90
61400;DHT22;47269;48.182;-1.946;2023-05-16T16:22:03;16.80;99.90
61400;DHT22;47269;48.182;-1.946;2023-05-16T16:24:29;16.60;99.90
61400;DHT22;47269;48.182;-1.946;2023-05-16T16:26:54;16.70;99.90
61400;DHT22;47269;48.182;-1.946;2023-05-16T16:29:20;16.60;99.90
61400;DHT22;47269;48.182;-1.946;2023-05-16T16:31:46;16.50;99.90
61400;DHT22;47269;48.182;-1.946;2023-05-16T16:34:11;16.50;99.90
61400;DHT22;47269;48.182;-1.946;2023-05-16T16:36:37;16.20;99.90
61400;DHT22;47269;48.182;-1.946;2023-05-16T16:39:03;16.10;99.90
61400;DHT22;47269;48.182;-1.946;2023-05-16T16:41:30;16.20;99.90
61400;DHT22;47269;48.182;-1.946;2023-05-16T16:43:55;16.40;99.90
61400;DHT22;47269;48.182;-1.946;2023-05-16T16:46:21;16.30;99.90
61400;DHT22;47269;48.182;-1.946;2023-05-16T16:48:47;16.00;99.90
61400;DHT22;47269;48.182;-1.946;2023-05-16T16:51:14;16.00;99.90
61400;DHT22;47269;48.182;-1.946;2023-05-16T16:53:39;16.00;99.90
61400;DHT22;47269;48.182;-1.946;2023-05-16T16:56:06;15.80;99.90
61400;DHT22;47269;48.182;-1.946;2023-05-16T16:58:31;15.90;99.90
61400;DHT22;47269;48.182;-1.946;2023-05-16T17:00:57;15.70;99.90
61400;DHT22;47269;48.182;-1.946;2023-05-16T17:03:23;15.70;99.90
61400;DHT22;47269;48.182;-1.946;2023-05-16T17:05:49;15.90;99.90
61400;DHT22;47269;48.182;-1.946;2023-05-16T17:08:15;15.90;99.90
61400;DHT22;47269;48.182;-1.946;2023-05-16T17:10:41;15.80;99.90
61400;DHT22;47269;48.182;-1.946;2023-05-16T17:13:07;15.70;99.90
61400;DHT22;47269;48.182;-1.946;2023-05-16T17:15:35;15.50;99.90
61400;DHT22;47269;48.182;-1.946;2023-05-16T17:18:02;15.40;99.90
61400;DHT22;47269;48.182;-1.946;2023-05-16T17:20:29;15.50;99.90
61400;DHT22;47269;48.182;-1.946;2023-05-16T17:22:55;15.40;99.90
61400;DHT22;47269;48.182;-1.946;2023-05-16T17:25:20;15.30;99.90
61400;DHT22;47269;48.182;-1.946;2023-05-16T17:27:46;15.40;99.90
61400;DHT22;47269;48.182;-1.946;2023-05-16T17:30:12;15.30;99.90
61400;DHT22;47269;48.182;-1.946;2023-05-16T17:32:38;15.20;99.90
61400;DHT22;47269;48.182;-1.946;2023-05-16T17:35:04;15.10;99.90
61400;DHT22;47269;48.182;-1.946;2023-05-16T17:37:30;15.10;99.90
61400;DHT22;47269;48.182;-1.946;2023-05-16T17:39:56;15.00;99.90
61400;DHT22;47269;48.182;-1.946;2023-05-16T17:42:22;15.00;99.90
61400;DHT22;47269;48.182;-1.946;2023-05-16T17:44:48;14.90;99.90
61400;DHT22;47269;48.182;-1.946;2023-05-16T17:47:14;14.80;99.90
61400;DHT22;47269;48.182;-1.946;2023-05-16T17:49:40;14.80;99.90
61400;DHT22;47269;48.182;-1.946;2023-05-16T17:52:06;14.80;99.90
61400;DHT22;47269;48.182;-1.946;2023-05-16T17:54:33;14.80;99.90
61400;DHT22;47269;48.182;-1.946;2023-05-16T17:56:58;14.60;99.90
61400;DHT22;47269;48.182;-1.946;2023-05-16T17:59:24;14.60;99.90
61400;DHT22;47269;48.182;-1.946;2023-05-16T18:01:52;14.50;99.90
61400;DHT22;47269;48.182;-1.946;2023-05-16T18:04:18;14.60;99.90
61400;DHT22;47269;48.182;-1.946;2023-05-16T18:06:46;14.50;99.90
61400;DHT22;47269;48.182;-1.946;2023-05-16T18:09:12;14.50;99.90
61400;DHT22;47269;48.182;-1.946;2023-05-16T18:11:39;14.40;99.90
61400;DHT22;47269;48.182;-1.946;2023-05-16T18:14:05;14.50;99.90
61400;DHT22;47269;48.182;-1.946;2023-05-16T18:16:33;14.40;99.90
61400;DHT22;47269;48.182;-1.946;2023-05-16T18:18:59;14.20;99.90
61400;DHT22;47269;48.182;-1.946;2023-05-16T18:21:25;14.20;99.90
61400;DHT22;47269;48.182;-1.946;2023-05-16T18:23:58;14.10;99.90
61400;DHT22;47269;48.182;-1.946;2023-05-16T18:26:27;14.00;99.90
61400;DHT22;47269;48.182;-1.946;2023-05-16T18:28:53;14.00;99.90
61400;DHT22;47269;48.182;-1.946;2023-05-16T18:31:19;14.00;99.90
61400;DHT22;47269;48.182;-1.946;2023-05-16T18:33:45;13.90;99.90
61400;DHT22;47269;48.182;-1.946;2023-05-16T18:36:11;13.80;99.90
61400;DHT22;47269;48.182;-1.946;2023-05-16T18:38:36;13.80;99.90
61400;DHT22;47269;48.182;-1.946;2023-05-16T18:41:02;13.80;99.90
61400;DHT22;47269;48.182;-1.946;2023-05-16T18:43:28;13.70;99.90
61400;DHT22;47269;48.182;-1.946;2023-05-16T18:45:54;13.60;99.90
61400;DHT22;47269;48.182;-1.946;2023-05-16T18:48:20;13.60;99.90
61400;DHT22;47269;48.182;-1.946;2023-05-16T18:50:45;13.60;99.90
61400;DHT22;47269;48.182;-1.946;2023-05-16T18:53:11;13.50;99.90
61400;DHT22;47269;48.182;-1.946;2023-05-16T18:55:37;13.40;99.90
61400;DHT22;47269;48.182;-1.946;2023-05-16T18:58:03;13.40;99.90
61400;DHT22;47269;48.182;-1.946;2023-05-16T19:00:28;13.40;99.90
61400;DHT22;47269;48.182;-1.946;2023-05-16T19:02:54;13.30;99.90
61400;DHT22;47269;48.182;-1.946;2023-05-16T19:05:21;13.20;99.90
61400;DHT22;47269;48.182;-1.946;2023-05-16T19:07:47;13.10;99.90
61400;DHT22;47269;48.182;-1.946;2023-05-16T19:10:13;13.10;99.90
61400;DHT22;47269;48.182;-1.946;2023-05-16T19:12:39;13.00;99.90
61400;DHT22;47269;48.182;-1.946;2023-05-16T19:15:05;13.00;99.90
61400;DHT22;47269;48.182;-1.946;2023-05-16T19:17:31;12.90;99.90
61400;DHT22;47269;48.182;-1.946;2023-05-16T19:19:57;12.80;99.90
61400;DHT22;47269;48.182;-1.946;2023-05-16T19:22:22;12.80;99.90
61400;DHT22;47269;48.182;-1.946;2023-05-16T19:24:48;12.70;99.90
61400;DHT22;47269;48.182;-1.946;2023-05-16T19:27:13;12.60;99.90
61400;DHT22;47269;48.182;-1.946;2023-05-16T19:29:39;12.60;99.90
61400;DHT22;47269;48.182;-1.946;2023-05-16T19:32:05;12.50;99.90
61400;DHT22;47269;48.182;-1.946;2023-05-16T19:34:31;12.50;99.90
61400;DHT22;47269;48.182;-1.946;2023-05-16T19:36:57;12.50;99.90
61400;DHT22;47269;48.182;-1.946;2023-05-16T19:39:22;12.40;99.90
61400;DHT22;47269;48.182;-1.946;2023-05-16T19:41:48;12.40;99.90
61400;DHT22;47269;48.182;-1.946;2023-05-16T19:44:15;12.30;99.90
61400;DHT22;47269;48.182;-1.946;2023-05-16T19:46:40;12.20;99.90
61400;DHT22;47269;48.182;-1.946;2023-05-16T19:49:06;12.10;99.90
61400;DHT22;47269;48.182;-1.946;2023-05-16T19:51:32;12.10;99.90
61400;DHT22;47269;48.182;-1.946;2023-05-16T19:53:57;12.10;99.90
61400;DHT22;47269;48.182;-1.946;2023-05-16T19:56:23;12.10;99.90
61400;DHT22;47269;48.182;-1.946;2023-05-16T19:58:49;12.00;99.90
61400;DHT22;47269;48.182;-1.946;2023-05-16T20:01:14;12.00;99.90
61400;DHT22;47269;48.182;-1.946;2023-05-16T20:03:40;11.90;99.90
61400;DHT22;47269;48.182;-1.946;2023-05-16T20:06:06;11.80;99.90
61400;DHT22;47269;48.182;-1.946;2023-05-16T20:08:31;11.70;99.90
61400;DHT22;47269;48.182;-1.946;2023-05-16T20:10:57;11.70;99.90
61400;DHT22;47269;48.182;-1.946;2023-05-16T20:13:23;11.70;99.90
61400;DHT22;47269;48.182;-1.946;2023-05-16T20:15:50;11.70;99.90
61400;DHT22;47269;48.182;-1.946;2023-05-16T20:18:15;11.70;99.90
61400;DHT22;47269;48.182;-1.946;2023-05-16T20:20:41;11.60;99.90
61400;DHT22;47269;48.182;-1.946;2023-05-16T20:23:08;11.60;99.90
61400;DHT22;47269;48.182;-1.946;2023-05-16T20:25:33;11.50;99.90
61400;DHT22;47269;48.182;-1.946;2023-05-16T20:28:00;11.60;99.90
61400;DHT22;47269;48.182;-1.946;2023-05-16T20:30:26;11.50;99.90
61400;DHT22;47269;48.182;-1.946;2023-05-16T20:32:52;11.50;99.90
61400;DHT22;47269;48.182;-1.946;2023-05-16T20:35:18;11.50;99.90
61400;DHT22;47269;48.182;-1.946;2023-05-16T20:37:43;11.40;99.90
61400;DHT22;47269;48.182;-1.946;2023-05-16T20:40:09;11.30;99.90
61400;DHT22;47269;48.182;-1.946;2023-05-16T20:42:35;11.30;99.90
61400;DHT22;47269;48.182;-1.946;2023-05-16T20:45:01;11.20;99.90
61400;DHT22;47269;48.182;-1.946;2023-05-16T20:47:27;11.10;99.90
61400;DHT22;47269;48.182;-1.946;2023-05-16T20:49:52;11.00;99.90
61400;DHT22;47269;48.182;-1.946;2023-05-16T20:52:18;11.00;99.90
61400;DHT22;47269;48.182;-1.946;2023-05-16T20:54:44;10.90;99.90
61400;DHT22;47269;48.182;-1.946;2023-05-16T20:57:10;10.90;99.90
61400;DHT22;47269;48.182;-1.946;2023-05-16T20:59:35;10.90;99.90
61400;DHT22;47269;48.182;-1.946;2023-05-16T21:02:04;10.80;99.90
61400;DHT22;47269;48.182;-1.946;2023-05-16T21:04:36;10.80;99.90
61400;DHT22;47269;48.182;-1.946;2023-05-16T21:07:02;10.80;99.90
61400;DHT22;47269;48.182;-1.946;2023-05-16T21:09:28;10.70;99.90
61400;DHT22;47269;48.182;-1.946;2023-05-16T21:11:54;10.70;99.90
61400;DHT22;47269;48.182;-1.946;2023-05-16T21:14:20;10.60;99.90
61400;DHT22;47269;48.182;-1.946;2023-05-16T21:16:45;10.60;99.90
61400;DHT22;47269;48.182;-1.946;2023-05-16T21:19:11;10.50;99.90
61400;DHT22;47269;48.182;-1.946;2023-05-16T21:21:37;10.40;99.90
61400;DHT22;47269;48.182;-1.946;2023-05-16T21:24:02;10.50;99.90
61400;DHT22;47269;48.182;-1.946;2023-05-16T21:26:29;10.40;99.90
61400;DHT22;47269;48.182;-1.946;2023-05-16T21:28:55;10.40;99.90
61400;DHT22;47269;48.182;-1.946;2023-05-16T21:31:21;10.30;99.90
61400;DHT22;47269;48.182;-1.946;2023-05-16T21:33:46;10.30;99.90
61400;DHT22;47269;48.182;-1.946;2023-05-16T21:36:27;10.30;99.90
61400;DHT22;47269;48.182;-1.946;2023-05-16T21:38:53;10.20;99.90
61400;DHT22;47269;48.182;-1.946;2023-05-16T21:41:19;10.10;99.90
61400;DHT22;47269;48.182;-1.946;2023-05-16T21:43:45;10.10;99.90
61400;DHT22;47269;48.182;-1.946;2023-05-16T21:46:11;10.10;99.90
61400;DHT22;47269;48.182;-1.946;2023-05-16T21:48:37;10.10;99.90